sensor_id;sensor_type;location;lat;lon;timestamp;pressure;altitude;pressure_sealevel;temperature;humidity
16664;BME280;8445;51.270;9.434;2023-04-27T00:00:04;99775.03;;;4.16;49.15
16664;BME280;8445;51.270;9.434;2023-04-27T00:02:35;99782.09;;;4.14;48.99
16664;BME280;8445;51.270;9.434;2023-04-27T00:05:02;99783.81;;;4.15;48.85
16664;BME280;8445;51.270;9.434;2023-04-27T00:07:30;99780.28;;;4.16;48.92
16664;BME280;8445;51.270;9.434;2023-04-27T00:10:03;99776.69;;;4.19;49.01
16664;BME280;8445;51.270;9.434;2023-04-27T00:12:28;99768.84;;;4.19;48.78
16664;BME280;8445;51.270;9.434;2023-04-27T00:14:56;99772.38;;;4.18;48.76
16664;BME280;8445;51.270;9.434;2023-04-27T00:17:21;99770.59;;;4.18;49.10
16664;BME280;8445;51.270;9.434;2023-04-27T00:19:49;99767.03;;;4.19;49.03
16664;BME280;8445;51.270;9.434;2023-04-27T00:22:14;99773.06;;;4.21;49.11
16664;BME280;8445;51.270;9.434;2023-04-27T00:24:40;99767.84;;;4.21;49.19
16664;BME280;8445;51.270;9.434;2023-04-27T00:27:08;99767.00;;;4.21;49.14
16664;BME280;8445;51.270;9.434;2023-04-27T00:29:34;99760.91;;;4.20;49.52
16664;BME280;8445;51.270;9.434;2023-04-27T00:31:59;99767.69;;;4.24;49.24
16664;BME280;8445;51.270;9.434;2023-04-27T00:34:25;99758.94;;;4.25;49.13
16664;BME280;8445;51.270;9.434;2023-04-27T00:36:50;99766.75;;;4.27;49.58
16664;BME280;8445;51.270;9.434;2023-04-27T00:39:18;99761.50;;;4.27;49.80
16664;BME280;8445;51.270;9.434;2023-04-27T00:41:44;99761.50;;;4.27;49.42
16664;BME280;8445;51.270;9.434;2023-04-27T00:44:09;99760.59;;;4.28;49.31
16664;BME280;8445;51.270;9.434;2023-04-27T00:46:38;99764.03;;;4.28;49.65
16664;BME280;8445;51.270;9.434;2023-04-27T00:49:06;99763.13;;;4.29;49.84
16664;BME280;8445;51.270;9.434;2023-04-27T00:51:31;99757.88;;;4.29;49.83
16664;BME280;8445;51.270;9.434;2023-04-27T00:53:57;99758.78;;;4.28;49.67
16664;BME280;8445;51.270;9.434;2023-04-27T00:56:23;99753.69;;;4.25;49.07
16664;BME280;8445;51.270;9.434;2023-04-27T00:58:48;99762.59;;;4.21;49.73
16664;BME280;8445;51.270;9.434;2023-04-27T01:01:14;99765.44;;;4.17;49.66
16664;BME280;8445;51.270;9.434;2023-04-27T01:03:39;99763.78;;;4.14;50.03
16664;BME280;8445;51.270;9.434;2023-04-27T01:06:06;99763.03;;;4.12;49.41
16664;BME280;8445;51.270;9.434;2023-04-27T01:08:31;99756.13;;;4.09;50.02
16664;BME280;8445;51.270;9.434;2023-04-27T01:10:57;99762.41;;;4.05;49.65
16664;BME280;8445;51.270;9.434;2023-04-27T01:13:22;99765.13;;;4.04;49.51
16664;BME280;8445;51.270;9.434;2023-04-27T01:15:47;99779.91;;;4.05;49.19
16664;BME280;8445;51.270;9.434;2023-04-27T01:18:13;99771.91;;;4.08;49.14
16664;BME280;8445;51.270;9.434;2023-04-27T01:20:39;99770.94;;;4.10;49.45
16664;BME280;8445;51.270;9.434;2023-04-27T01:23:11;99780.41;;;4.13;49.17
16664;BME280;8445;51.270;9.434;2023-04-27T01:25:37;99769.00;;;4.14;49.15
16664;BME280;8445;51.270;9.434;2023-04-27T01:28:02;99771.59;;;4.15;49.26
16664;BME280;8445;51.270;9.434;2023-04-27T01:30:28;99776.03;;;4.13;49.25
16664;BME280;8445;51.270;9.434;2023-04-27T01:32:54;99772.72;;;4.10;49.14
16664;BME280;8445;51.270;9.434;2023-04-27T01:35:23;99778.84;;;4.09;49.64
16664;BME280;8445;51.270;9.434;2023-04-27T01:37:49;99784.09;;;4.09;50.00
16664;BME280;8445;51.270;9.434;2023-04-27T01:40:16;99778.06;;;4.07;49.97
16664;BME280;8445;51.270;9.434;2023-04-27T01:42:45;99778.84;;;4.09;50.08
16664;BME280;8445;51.270;9.434;2023-04-27T01:45:11;99788.41;;;4.10;50.13
16664;BME280;8445;51.270;9.434;2023-04-27T01:47:36;99793.50;;;4.13;50.89
16664;BME280;8445;51.270;9.434;2023-04-27T01:50:02;99793.44;;;4.14;50.07
16664;BME280;8445;51.270;9.434;2023-04-27T01:52:28;99787.34;;;4.14;50.89
16664;BME280;8445;51.270;9.434;2023-04-27T01:54:54;99797.81;;;4.14;50.16
16664;BME280;8445;51.270;9.434;2023-04-27T01:57:23;99791.75;;;4.13;50.07
16664;BME280;8445;51.270;9.434;2023-04-27T01:59:49;99799.59;;;4.13;50.59
16664;BME280;8445;51.270;9.434;2023-04-27T02:02:15;99803.06;;;4.14;50.49
16664;BME280;8445;51.270;9.434;2023-04-27T02:04:40;99811.13;;;4.09;50.14
16664;BME280;8445;51.270;9.434;2023-04-27T02:07:07;99811.31;;;4.05;50.10
16664;BME280;8445;51.270;9.434;2023-04-27T02:09:33;99806.25;;;4.00;50.70
16664;BME280;8445;51.270;9.434;2023-04-27T02:12:00;99803.06;;;3.93;50.76
16664;BME280;8445;51.270;9.434;2023-04-27T02:14:26;99806.75;;;3.88;49.87
16664;BME280;8445;51.270;9.434;2023-04-27T02:16:52;99811.41;;;3.81;50.32
16664;BME280;8445;51.270;9.434;2023-04-27T02:19:17;99806.44;;;3.75;49.90
16664;BME280;8445;51.270;9.434;2023-04-27T02:21:43;99802.34;;;3.67;50.98
16664;BME280;8445;51.270;9.434;2023-04-27T02:24:08;99813.97;;;3.60;50.17
16664;BME280;8445;51.270;9.434;2023-04-27T02:26:34;99811.56;;;3.55;50.09
16664;BME280;8445;51.270;9.434;2023-04-27T02:29:02;99821.16;;;3.55;50.49
16664;BME280;8445;51.270;9.434;2023-04-27T02:31:28;99815.91;;;3.55;50.27
16664;BME280;8445;51.270;9.434;2023-04-27T02:33:53;99825.34;;;3.59;50.13
16664;BME280;8445;51.270;9.434;2023-04-27T02:36:23;99819.09;;;3.63;50.99
16664;BME280;8445;51.270;9.434;2023-04-27T02:38:48;99825.19;;;3.64;51.07
16664;BME280;8445;51.270;9.434;2023-04-27T02:41:14;99832.84;;;3.68;50.63
16664;BME280;8445;51.270;9.434;2023-04-27T02:43:39;99834.28;;;3.76;50.66
16664;BME280;8445;51.270;9.434;2023-04-27T02:46:05;99835.75;;;3.83;51.11
16664;BME280;8445;51.270;9.434;2023-04-27T02:48:30;99835.56;;;3.88;50.95
16664;BME280;8445;51.270;9.434;2023-04-27T02:50:56;99838.00;;;3.92;51.47
16664;BME280;8445;51.270;9.434;2023-04-27T02:53:21;99837.88;;;3.95;50.93
16664;BME280;8445;51.270;9.434;2023-04-27T02:55:47;99841.16;;;4.00;51.03
16664;BME280;8445;51.270;9.434;2023-04-27T02:58:13;99840.94;;;4.05;50.80
16664;BME280;8445;51.270;9.434;2023-04-27T03:00:39;99833.72;;;4.12;51.13
16664;BME280;8445;51.270;9.434;2023-04-27T03:03:07;99843.19;;;4.14;51.38
16664;BME280;8445;51.270;9.434;2023-04-27T03:05:34;99839.56;;;4.17;51.72
16664;BME280;8445;51.270;9.434;2023-04-27T03:08:00;99837.63;;;4.22;51.17
16664;BME280;8445;51.270;9.434;2023-04-27T03:10:25;99833.91;;;4.28;52.16
16664;BME280;8445;51.270;9.434;2023-04-27T03:12:51;99839.06;;;4.29;51.26
16664;BME280;8445;51.270;9.434;2023-04-27T03:15:16;99839.06;;;4.29;51.52
16664;BME280;8445;51.270;9.434;2023-04-27T03:17:45;99837.38;;;4.28;50.94
16664;BME280;8445;51.270;9.434;2023-04-27T03:20:14;99840.91;;;4.27;51.10
16664;BME280;8445;51.270;9.434;2023-04-27T03:22:39;99841.03;;;4.24;50.88
16664;BME280;8445;51.270;9.434;2023-04-27T03:25:05;99843.00;;;4.19;51.24
16664;BME280;8445;51.270;9.434;2023-04-27T03:27:31;99844.94;;;4.14;50.97
16664;BME280;8445;51.270;9.434;2023-04-27T03:29:56;99840.00;;;4.08;50.94
16664;BME280;8445;51.270;9.434;2023-04-27T03:32:22;99839.25;;;4.04;50.74
16664;BME280;8445;51.270;9.434;2023-04-27T03:34:47;99842.91;;;4.00;51.29
16664;BME280;8445;51.270;9.434;2023-04-27T03:37:13;99833.69;;;3.91;51.16
16664;BME280;8445;51.270;9.434;2023-04-27T03:39:38;99835.03;;;3.79;51.29
16664;BME280;8445;51.270;9.434;2023-04-27T03:42:13;99829.31;;;3.69;51.09
16664;BME280;8445;51.270;9.434;2023-04-27T03:44:38;99835.56;;;3.65;50.85
16664;BME280;8445;51.270;9.434;2023-04-27T03:47:04;99827.81;;;3.64;51.93
16664;BME280;8445;51.270;9.434;2023-04-27T03:49:36;99827.97;;;3.59;51.40
16664;BME280;8445;51.270;9.434;2023-04-27T03:52:01;99829.06;;;3.53;51.66
16664;BME280;8445;51.270;9.434;2023-04-27T03:54:28;99830.09;;;3.49;51.88
16664;BME280;8445;51.270;9.434;2023-04-27T03:56:57;99829.31;;;3.47;51.73
16664;BME280;8445;51.270;9.434;2023-04-27T03:59:23;99831.25;;;3.42;51.70
16664;BME280;8445;51.270;9.434;2023-04-27T04:01:51;99839.28;;;3.37;52.09
16664;BME280;8445;51.270;9.434;2023-04-27T04:04:18;99835.88;;;3.35;52.24
16664;BME280;8445;51.270;9.434;2023-04-27T04:06:44;99832.47;;;3.33;52.27
16664;BME280;8445;51.270;9.434;2023-04-27T04:09:11;99828.84;;;3.37;52.31
16664;BME280;8445;51.270;9.434;2023-04-27T04:11:38;99830.44;;;3.41;52.70
16664;BME280;8445;51.270;9.434;2023-04-27T04:14:05;99834.50;;;3.49;52.69
16664;BME280;8445;51.270;9.434;2023-04-27T04:16:32;99831.78;;;3.52;52.65
16664;BME280;8445;51.270;9.434;2023-04-27T04:19:00;99830.00;;;3.52;53.02
16664;BME280;8445;51.270;9.434;2023-04-27T04:21:25;99823.13;;;3.50;52.33
16664;BME280;8445;51.270;9.434;2023-04-27T04:23:51;99817.16;;;3.46;52.50
16664;BME280;8445;51.270;9.434;2023-04-27T04:26:17;99826.22;;;3.37;52.26
16664;BME280;8445;51.270;9.434;2023-04-27T04:28:43;99828.28;;;3.29;52.50
16664;BME280;8445;51.270;9.434;2023-04-27T04:31:08;99825.19;;;3.19;52.80
16664;BME280;8445;51.270;9.434;2023-04-27T04:33:34;99830.00;;;3.06;52.59
16664;BME280;8445;51.270;9.434;2023-04-27T04:36:02;99837.38;;;2.95;52.61
16664;BME280;8445;51.270;9.434;2023-04-27T04:38:29;99841.28;;;2.85;52.67
16664;BME280;8445;51.270;9.434;2023-04-27T04:40:57;99843.91;;;2.83;52.19
16664;BME280;8445;51.270;9.434;2023-04-27T04:43:23;99837.75;;;2.86;52.29
16664;BME280;8445;51.270;9.434;2023-04-27T04:45:48;99847.22;;;2.88;51.93
16664;BME280;8445;51.270;9.434;2023-04-27T04:48:15;99839.38;;;2.88;52.54
16664;BME280;8445;51.270;9.434;2023-04-27T04:50:43;99853.25;;;2.90;52.43
16664;BME280;8445;51.270;9.434;2023-04-27T04:53:09;99841.88;;;2.91;52.51
16664;BME280;8445;51.270;9.434;2023-04-27T04:55:35;99847.97;;;2.92;53.07
16664;BME280;8445;51.270;9.434;2023-04-27T04:58:01;99851.31;;;2.95;52.77
16664;BME280;8445;51.270;9.434;2023-04-27T05:00:27;99858.88;;;3.03;52.55
16664;BME280;8445;51.270;9.434;2023-04-27T05:02:52;99863.81;;;3.11;52.01
16664;BME280;8445;51.270;9.434;2023-04-27T05:05:20;99862.38;;;3.26;52.45
16664;BME280;8445;51.270;9.434;2023-04-27T05:07:45;99859.97;;;3.44;53.09
16664;BME280;8445;51.270;9.434;2023-04-27T05:10:10;99872.19;;;3.65;52.70
16664;BME280;8445;51.270;9.434;2023-04-27T05:12:36;99870.69;;;3.82;52.49
16664;BME280;8445;51.270;9.434;2023-04-27T05:15:01;99864.88;;;3.96;51.83
16664;BME280;8445;51.270;9.434;2023-04-27T05:17:27;99872.00;;;4.14;52.26
16664;BME280;8445;51.270;9.434;2023-04-27T05:19:53;99869.56;;;4.30;51.99
16664;BME280;8445;51.270;9.434;2023-04-27T05:22:18;99881.03;;;4.49;52.59
16664;BME280;8445;51.270;9.434;2023-04-27T05:24:44;99877.72;;;4.66;52.53
16664;BME280;8445;51.270;9.434;2023-04-27T05:27:11;99875.19;;;4.83;52.69
16664;BME280;8445;51.270;9.434;2023-04-27T05:29:39;99875.44;;;4.98;52.91
16664;BME280;8445;51.270;9.434;2023-04-27T05:32:05;99878.19;;;5.14;53.09
16664;BME280;8445;51.270;9.434;2023-04-27T05:34:37;99880.22;;;5.28;52.92
16664;BME280;8445;51.270;9.434;2023-04-27T05:37:03;99882.25;;;5.40;52.78
16664;BME280;8445;51.270;9.434;2023-04-27T05:39:29;99891.25;;;5.54;52.85
16664;BME280;8445;51.270;9.434;2023-04-27T05:41:54;99894.22;;;5.65;52.34
16664;BME280;8445;51.270;9.434;2023-04-27T05:44:19;99895.50;;;5.75;52.71
16664;BME280;8445;51.270;9.434;2023-04-27T05:46:45;99901.84;;;5.89;53.41
16664;BME280;8445;51.270;9.434;2023-04-27T05:49:11;99897.59;;;6.05;52.89
16664;BME280;8445;51.270;9.434;2023-04-27T05:51:36;99902.25;;;6.18;53.13
16664;BME280;8445;51.270;9.434;2023-04-27T05:54:03;99903.50;;;6.28;53.09
16664;BME280;8445;51.270;9.434;2023-04-27T05:56:31;99907.06;;;6.45;52.73
16664;BME280;8445;51.270;9.434;2023-04-27T05:58:56;99909.97;;;6.56;52.70
16664;BME280;8445;51.270;9.434;2023-04-27T06:01:22;99912.28;;;6.62;52.93
16664;BME280;8445;51.270;9.434;2023-04-27T06:03:47;99910.91;;;6.73;53.41
16664;BME280;8445;51.270;9.434;2023-04-27T06:06:13;99918.22;;;6.83;53.46
16664;BME280;8445;51.270;9.434;2023-04-27T06:08:38;99910.63;;;6.95;53.55
16664;BME280;8445;51.270;9.434;2023-04-27T06:11:04;99909.41;;;7.18;53.75
16664;BME280;8445;51.270;9.434;2023-04-27T06:13:30;99905.47;;;7.43;53.42
16664;BME280;8445;51.270;9.434;2023-04-27T06:15:57;99911.50;;;7.61;53.57
16664;BME280;8445;51.270;9.434;2023-04-27T06:18:25;99912.41;;;7.76;53.70
16664;BME280;8445;51.270;9.434;2023-04-27T06:20:50;99909.19;;;7.87;53.97
16664;BME280;8445;51.270;9.434;2023-04-27T06:23:16;99922.88;;;7.94;54.43
16664;BME280;8445;51.270;9.434;2023-04-27T06:32:45;99918.69;;;8.36;54.58
16664;BME280;8445;51.270;9.434;2023-04-27T06:35:13;99918.94;;;8.48;54.35
16664;BME280;8445;51.270;9.434;2023-04-27T06:37:39;99920.88;;;8.60;54.25
16664;BME280;8445;51.270;9.434;2023-04-27T06:40:05;99914.88;;;8.72;54.10
16664;BME280;8445;51.270;9.434;2023-04-27T06:42:32;99926.59;;;8.83;54.06
16664;BME280;8445;51.270;9.434;2023-04-27T06:44:58;99934.03;;;8.90;54.21
16664;BME280;8445;51.270;9.434;2023-04-27T06:47:31;99934.50;;;8.97;53.83
16664;BME280;8445;51.270;9.434;2023-04-27T06:49:59;99933.94;;;9.07;53.97
16664;BME280;8445;51.270;9.434;2023-04-27T06:52:27;99937.63;;;9.18;54.03
16664;BME280;8445;51.270;9.434;2023-04-27T06:54:57;99931.41;;;9.34;53.97
16664;BME280;8445;51.270;9.434;2023-04-27T06:57:23;99934.88;;;9.49;54.12
16664;BME280;8445;51.270;9.434;2023-04-27T06:59:52;99929.13;;;9.57;53.79
16664;BME280;8445;51.270;9.434;2023-04-27T07:02:17;99926.72;;;9.67;53.92
16664;BME280;8445;51.270;9.434;2023-04-27T07:04:48;99931.69;;;9.86;53.33
16664;BME280;8445;51.270;9.434;2023-04-27T07:07:18;99935.34;;;9.98;53.85
16664;BME280;8445;51.270;9.434;2023-04-27T07:09:47;99943.72;;;10.32;52.59
16664;BME280;8445;51.270;9.434;2023-04-27T07:12:12;99936.53;;;10.34;52.47
16664;BME280;8445;51.270;9.434;2023-04-27T07:14:38;99941.50;;;10.38;52.50
16664;BME280;8445;51.270;9.434;2023-04-27T07:17:05;99936.53;;;10.34;52.64
16664;BME280;8445;51.270;9.434;2023-04-27T07:19:31;99927.41;;;10.25;52.69
16664;BME280;8445;51.270;9.434;2023-04-27T07:21:56;99940.53;;;10.27;52.95
16664;BME280;8445;51.270;9.434;2023-04-27T07:24:25;99936.50;;;10.21;52.72
16664;BME280;8445;51.270;9.434;2023-04-27T07:26:50;99933.75;;;10.22;52.58
16664;BME280;8445;51.270;9.434;2023-04-27T07:29:18;99934.13;;;10.16;52.99
16664;BME280;8445;51.270;9.434;2023-04-27T07:31:46;99938.03;;;10.38;52.88
16664;BME280;8445;51.270;9.434;2023-04-27T07:34:14;99943.69;;;10.46;52.40
16664;BME280;8445;51.270;9.434;2023-04-27T07:36:39;99944.03;;;10.55;52.23
16664;BME280;8445;51.270;9.434;2023-04-27T07:39:05;99937.66;;;10.44;52.32
16664;BME280;8445;51.270;9.434;2023-04-27T07:41:32;99943.19;;;10.67;52.42
16664;BME280;8445;51.270;9.434;2023-04-27T07:43:58;99940.66;;;10.78;52.23
16664;BME280;8445;51.270;9.434;2023-04-27T07:46:24;99945.53;;;10.85;52.38
16664;BME280;8445;51.270;9.434;2023-04-27T07:48:52;99937.50;;;10.99;52.33
16664;BME280;8445;51.270;9.434;2023-04-27T07:51:19;99936.00;;;11.34;51.95
16664;BME280;8445;51.270;9.434;2023-04-27T07:53:49;99943.75;;;11.37;52.75
16664;BME280;8445;51.270;9.434;2023-04-27T07:56:15;99942.28;;;11.70;52.76
16664;BME280;8445;51.270;9.434;2023-04-27T07:58:42;99942.63;;;12.03;52.02
16664;BME280;8445;51.270;9.434;2023-04-27T08:01:11;99944.88;;;12.44;51.50
16664;BME280;8445;51.270;9.434;2023-04-27T08:03:36;99941.47;;;12.78;50.76
16664;BME280;8445;51.270;9.434;2023-04-27T08:06:02;99934.47;;;12.77;50.94
16664;BME280;8445;51.270;9.434;2023-04-27T08:08:28;99934.69;;;12.63;50.49
16664;BME280;8445;51.270;9.434;2023-04-27T08:10:54;99927.34;;;12.30;50.55
16664;BME280;8445;51.270;9.434;2023-04-27T08:13:19;99925.59;;;12.18;50.56
16664;BME280;8445;51.270;9.434;2023-04-27T08:15:45;99933.72;;;12.04;50.18
16664;BME280;8445;51.270;9.434;2023-04-27T08:18:10;99933.53;;;11.81;50.83
16664;BME280;8445;51.270;9.434;2023-04-27T08:20:35;99922.94;;;11.81;51.11
16664;BME280;8445;51.270;9.434;2023-04-27T08:23:01;99922.75;;;12.08;51.02
16664;BME280;8445;51.270;9.434;2023-04-27T08:25:26;99920.56;;;12.26;50.18
16664;BME280;8445;51.270;9.434;2023-04-27T08:27:52;99920.97;;;12.09;50.45
16664;BME280;8445;51.270;9.434;2023-04-27T08:30:18;99915.00;;;11.81;49.51
16664;BME280;8445;51.270;9.434;2023-04-27T08:32:47;99916.91;;;11.41;49.93
16664;BME280;8445;51.270;9.434;2023-04-27T08:35:12;99918.19;;;11.23;50.43
16664;BME280;8445;51.270;9.434;2023-04-27T08:37:38;99916.91;;;11.41;50.49
16664;BME280;8445;51.270;9.434;2023-04-27T08:40:06;99910.09;;;11.63;50.44
16664;BME280;8445;51.270;9.434;2023-04-27T08:42:32;99912.88;;;12.10;49.93
16664;BME280;8445;51.270;9.434;2023-04-27T08:44:58;99911.66;;;12.27;49.68
16664;BME280;8445;51.270;9.434;2023-04-27T08:47:23;99911.38;;;12.19;49.78
16664;BME280;8445;51.270;9.434;2023-04-27T08:49:49;99917.69;;;12.29;49.85
16664;BME280;8445;51.270;9.434;2023-04-27T08:52:15;99901.84;;;12.52;49.88
16664;BME280;8445;51.270;9.434;2023-04-27T08:54:41;99906.50;;;12.96;49.96
16664;BME280;8445;51.270;9.434;2023-04-27T08:57:14;99902.16;;;13.40;48.29
16664;BME280;8445;51.270;9.434;2023-04-27T08:59:40;99901.94;;;13.32;48.41
16664;BME280;8445;51.270;9.434;2023-04-27T09:02:17;99912.31;;;13.24;48.51
16664;BME280;8445;51.270;9.434;2023-04-27T09:04:43;99905.78;;;13.39;49.03
16664;BME280;8445;51.270;9.434;2023-04-27T09:07:10;99906.41;;;13.66;48.68
16664;BME280;8445;51.270;9.434;2023-04-27T09:09:36;99906.69;;;13.95;48.41
16664;BME280;8445;51.270;9.434;2023-04-27T09:12:19;99906.19;;;14.34;48.52
16664;BME280;8445;51.270;9.434;2023-04-27T09:14:59;99904.25;;;14.57;44.86
16664;BME280;8445;51.270;9.434;2023-04-27T09:17:26;99911.72;;;14.63;48.55
16664;BME280;8445;51.270;9.434;2023-04-27T09:20:03;99905.34;;;14.76;48.28
16664;BME280;8445;51.270;9.434;2023-04-27T09:22:44;99912.72;;;14.84;45.10
16664;BME280;8445;51.270;9.434;2023-04-27T09:27:53;99911.69;;;15.06;47.96
16664;BME280;8445;51.270;9.434;2023-04-27T09:30:18;99912.91;;;15.33;47.74
16664;BME280;8445;51.270;9.434;2023-04-27T09:32:54;99901.72;;;15.39;45.14
16664;BME280;8445;51.270;9.434;2023-04-27T09:35:23;99906.56;;;15.14;46.76
16664;BME280;8445;51.270;9.434;2023-04-27T09:37:50;99906.00;;;14.89;47.30
16664;BME280;8445;51.270;9.434;2023-04-27T09:40:20;99901.31;;;14.60;45.71
16664;BME280;8445;51.270;9.434;2023-04-27T09:42:50;99904.00;;;14.06;46.56
16664;BME280;8445;51.270;9.434;2023-04-27T09:45:16;99911.72;;;14.10;47.54
16664;BME280;8445;51.270;9.434;2023-04-27T09:47:43;99904.75;;;14.30;47.40
16664;BME280;8445;51.270;9.434;2023-04-27T09:50:12;99903.13;;;14.38;46.91
16664;BME280;8445;51.270;9.434;2023-04-27T09:52:42;99904.75;;;14.51;46.51
16664;BME280;8445;51.270;9.434;2023-04-27T09:55:17;99900.50;;;14.48;45.90
16664;BME280;8445;51.270;9.434;2023-04-27T10:09:24;99900.69;;;15.71;46.56
16664;BME280;8445;51.270;9.434;2023-04-27T10:11:52;99897.56;;;16.07;46.46
16664;BME280;8445;51.270;9.434;2023-04-27T10:14:21;99897.97;;;16.22;45.97
16664;BME280;8445;51.270;9.434;2023-04-27T10:16:54;99904.00;;;16.43;45.21
16664;BME280;8445;51.270;9.434;2023-04-27T10:19:26;99895.53;;;16.58;45.49
16664;BME280;8445;51.270;9.434;2023-04-27T10:21:58;99895.56;;;16.48;45.26
16664;BME280;8445;51.270;9.434;2023-04-27T10:24:35;99891.06;;;16.58;44.53
16664;BME280;8445;51.270;9.434;2023-04-27T10:27:08;99886.34;;;16.80;45.32
16664;BME280;8445;51.270;9.434;2023-04-27T10:29:35;99881.88;;;16.81;44.39
16664;BME280;8445;51.270;9.434;2023-04-27T10:32:05;99884.13;;;16.75;43.96
16664;BME280;8445;51.270;9.434;2023-04-27T10:34:42;99881.03;;;16.70;43.20
16664;BME280;8445;51.270;9.434;2023-04-27T10:37:10;99874.59;;;16.63;43.86
16664;BME280;8445;51.270;9.434;2023-04-27T10:39:38;99871.41;;;16.30;43.78
16664;BME280;8445;51.270;9.434;2023-04-27T10:42:04;99869.75;;;15.90;43.39
16664;BME280;8445;51.270;9.434;2023-04-27T10:44:31;99866.75;;;15.22;43.21
16664;BME280;8445;51.270;9.434;2023-04-27T10:46:59;99858.59;;;14.83;43.31
16664;BME280;8445;51.270;9.434;2023-04-27T10:49:29;99866.56;;;14.62;43.27
16664;BME280;8445;51.270;9.434;2023-04-27T10:51:57;99861.75;;;14.56;43.25
16664;BME280;8445;51.270;9.434;2023-04-27T10:54:27;99867.94;;;14.56;42.38
16664;BME280;8445;51.270;9.434;2023-04-27T10:56:54;99861.91;;;14.54;42.63
16664;BME280;8445;51.270;9.434;2023-04-27T10:59:26;99852.44;;;14.61;42.61
16664;BME280;8445;51.270;9.434;2023-04-27T11:01:51;99861.50;;;14.80;42.40
16664;BME280;8445;51.270;9.434;2023-04-27T11:04:17;99852.88;;;14.66;42.77
16664;BME280;8445;51.270;9.434;2023-04-27T11:06:44;99847.94;;;14.83;42.75
16664;BME280;8445;51.270;9.434;2023-04-27T11:09:23;99846.09;;;15.15;43.02
16664;BME280;8445;51.270;9.434;2023-04-27T11:11:52;99834.25;;;15.48;43.15
16664;BME280;8445;51.270;9.434;2023-04-27T11:14:20;99834.84;;;15.62;41.85
16664;BME280;8445;51.270;9.434;2023-04-27T11:16:47;99827.28;;;15.67;42.45
16664;BME280;8445;51.270;9.434;2023-04-27T11:19:14;99832.19;;;15.62;42.60
16664;BME280;8445;51.270;9.434;2023-04-27T11:21:40;99836.16;;;15.97;43.25
16664;BME280;8445;51.270;9.434;2023-04-27T11:24:07;99829.25;;;16.34;42.60
16664;BME280;8445;51.270;9.434;2023-04-27T11:26:34;99832.66;;;16.73;42.75
16664;BME280;8445;51.270;9.434;2023-04-27T11:29:05;99832.13;;;16.70;41.32
16664;BME280;8445;51.270;9.434;2023-04-27T11:31:45;99829.13;;;16.25;41.55
16664;BME280;8445;51.270;9.434;2023-04-27T11:34:22;99823.50;;;15.79;40.84
16664;BME280;8445;51.270;9.434;2023-04-27T11:36:57;99819.50;;;15.34;40.35
16664;BME280;8445;51.270;9.434;2023-04-27T11:39:31;99822.88;;;14.86;41.28
16664;BME280;8445;51.270;9.434;2023-04-27T11:41:57;99829.09;;;14.53;41.26
16664;BME280;8445;51.270;9.434;2023-04-27T11:44:38;99819.59;;;14.30;41.23
16664;BME280;8445;51.270;9.434;2023-04-27T11:47:05;99815.09;;;14.30;41.31
16664;BME280;8445;51.270;9.434;2023-04-27T11:49:31;99807.13;;;14.30;40.99
16664;BME280;8445;51.270;9.434;2023-04-27T11:51:56;99802.25;;;14.35;41.05
16664;BME280;8445;51.270;9.434;2023-04-27T11:54:27;99808.47;;;14.46;40.98
16664;BME280;8445;51.270;9.434;2023-04-27T11:57:03;99813.50;;;14.39;40.38
16664;BME280;8445;51.270;9.434;2023-04-27T11:59:30;99808.47;;;14.46;40.86
16664;BME280;8445;51.270;9.434;2023-04-27T12:01:57;99804.56;;;14.50;40.96
16664;BME280;8445;51.270;9.434;2023-04-27T12:04:28;99802.19;;;14.47;40.96
16664;BME280;8445;51.270;9.434;2023-04-27T12:06:53;99808.47;;;14.46;40.81
16664;BME280;8445;51.270;9.434;2023-04-27T12:09:19;99803.53;;;14.62;40.87
16664;BME280;8445;51.270;9.434;2023-04-27T12:11:48;99804.16;;;14.76;40.89
16664;BME280;8445;51.270;9.434;2023-04-27T12:14:18;99798.91;;;14.86;40.92
16664;BME280;8445;51.270;9.434;2023-04-27T12:16:45;99803.25;;;14.65;40.54
16664;BME280;8445;51.270;9.434;2023-04-27T12:19:11;99804.38;;;14.42;40.74
16664;BME280;8445;51.270;9.434;2023-04-27T12:21:37;99801.28;;;14.36;40.80
16664;BME280;8445;51.270;9.434;2023-04-27T12:24:02;99790.25;;;14.41;40.87
16664;BME280;8445;51.270;9.434;2023-04-27T12:26:28;99797.81;;;14.46;40.83
16664;BME280;8445;51.270;9.434;2023-04-27T12:28:54;99806.84;;;14.33;40.72
16664;BME280;8445;51.270;9.434;2023-04-27T12:31:20;99803.63;;;14.30;40.89
16664;BME280;8445;51.270;9.434;2023-04-27T12:33:49;99808.09;;;14.29;40.98
16664;BME280;8445;51.270;9.434;2023-04-27T12:36:15;99814.78;;;14.45;40.54
16664;BME280;8445;51.270;9.434;2023-04-27T12:38:41;99809.06;;;14.28;40.47
16664;BME280;8445;51.270;9.434;2023-04-27T12:41:07;99803.53;;;14.20;40.81
16664;BME280;8445;51.270;9.434;2023-04-27T12:43:32;99808.94;;;14.30;40.71
16664;BME280;8445;51.270;9.434;2023-04-27T12:46:00;99804.13;;;14.23;40.40
16664;BME280;8445;51.270;9.434;2023-04-27T12:48:26;99802.44;;;14.22;40.36
16664;BME280;8445;51.270;9.434;2023-04-27T12:50:51;99798.88;;;14.33;40.30
16664;BME280;8445;51.270;9.434;2023-04-27T12:53:17;99799.97;;;14.52;40.14
16664;BME280;8445;51.270;9.434;2023-04-27T12:55:42;99793.50;;;14.76;40.72
16664;BME280;8445;51.270;9.434;2023-04-27T12:58:10;99792.72;;;14.85;40.17
16664;BME280;8445;51.270;9.434;2023-04-27T13:00:36;99789.34;;;14.83;39.83
16664;BME280;8445;51.270;9.434;2023-04-27T13:03:01;99795.53;;;14.93;40.08
16664;BME280;8445;51.270;9.434;2023-04-27T13:05:27;99796.69;;;15.01;40.19
16664;BME280;8445;51.270;9.434;2023-04-27T13:07:52;99796.69;;;15.01;40.39
16664;BME280;8445;51.270;9.434;2023-04-27T13:10:17;99790.72;;;15.18;40.42
16664;BME280;8445;51.270;9.434;2023-04-27T13:12:43;99791.72;;;15.37;40.39
16664;BME280;8445;51.270;9.434;2023-04-27T13:15:09;99795.69;;;15.52;40.01
16664;BME280;8445;51.270;9.434;2023-04-27T13:17:34;99786.38;;;15.37;40.12
16664;BME280;8445;51.270;9.434;2023-04-27T13:20:00;99791.00;;;15.25;39.92
16664;BME280;8445;51.270;9.434;2023-04-27T13:22:26;99786.66;;;15.34;40.02
16664;BME280;8445;51.270;9.434;2023-04-27T13:24:52;99779.72;;;15.72;40.57
16664;BME280;8445;51.270;9.434;2023-04-27T13:27:17;99782.50;;;16.00;40.15
16664;BME280;8445;51.270;9.434;2023-04-27T13:29:44;99776.88;;;16.23;40.72
16664;BME280;8445;51.270;9.434;2023-04-27T13:32:10;99779.31;;;16.54;40.09
16664;BME280;8445;51.270;9.434;2023-04-27T13:34:35;99794.75;;;16.60;40.10
16664;BME280;8445;51.270;9.434;2023-04-27T13:37:03;99778.94;;;16.77;40.27